Terminal Aerodrome Forecast
Issued by NWS

Home | Current Version | Previous Version | Graphics & Text | Print | Product List | Glossary On
Versions: 1 2 3 4 5 6 7 8 9 10 11 12 13 14 15 16 17 18 19 20
000
FTUS43 KMPX 181732
TAFRNH
TAF
KRNH 181732Z 1818/1918 32012KT P6SM SCT020
     FM182000 32015G22KT P6SM BKN035
     FM190200 31011KT P6SM SKC
     FM191000 29007KT P6SM SCT250=

USA.gov is the U.S. government's official web portal to all federal, state and local government web resources and services.